createdAt,value
2022-11-27T00:01:40.941Z,7.80
2022-11-27T00:04:10.562Z,6.10
2022-11-27T00:06:40.038Z,5.43
2022-11-27T00:09:14.061Z,5.65
2022-11-27T00:11:41.197Z,5.70
2022-11-27T00:14:11.388Z,4.93
2022-11-27T00:16:38.349Z,4.95
2022-11-27T00:19:05.528Z,4.55
2022-11-27T00:21:35.203Z,6.30
2022-11-27T00:24:06.071Z,5.03
2022-11-27T00:26:37.596Z,5.97
2022-11-27T00:29:05.592Z,4.43
2022-11-27T00:31:34.483Z,3.65
2022-11-27T00:34:04.658Z,3.55
2022-11-27T00:36:33.537Z,3.70
2022-11-27T00:39:01.138Z,3.25
2022-11-27T00:41:30.368Z,4.07
2022-11-27T00:43:58.054Z,3.60
2022-11-27T00:46:30.525Z,3.30
2022-11-27T00:49:02.118Z,3.97
2022-11-27T00:51:31.446Z,3.90
2022-11-27T00:53:59.091Z,3.28
2022-11-27T00:56:32.798Z,3.00
2022-11-27T00:58:59.995Z,3.63
2022-11-27T01:01:33.391Z,3.63
2022-11-27T01:04:01.810Z,4.07
2022-11-27T01:06:30.212Z,4.03
2022-11-27T01:08:57.960Z,3.53
2022-11-27T01:11:26.951Z,4.32
2022-11-27T01:13:56.794Z,4.47
2022-11-27T01:16:25.689Z,5.47
2022-11-27T01:18:55.443Z,5.80
2022-11-27T01:21:22.331Z,5.03
2022-11-27T01:23:50.242Z,5.07
2022-11-27T01:26:18.425Z,5.97
2022-11-27T01:28:46.329Z,5.40
2022-11-27T01:31:19.780Z,4.05
2022-11-27T01:33:47.527Z,3.58
2022-11-27T01:36:16.429Z,3.75
2022-11-27T01:38:43.570Z,3.47
2022-11-27T01:41:27.823Z,3.10
2022-11-27T01:44:00.449Z,3.33
2022-11-27T01:46:36.373Z,3.60
2022-11-27T01:49:23.569Z,3.20
2022-11-27T01:51:53.285Z,3.55
2022-11-27T01:54:25.131Z,2.85
2022-11-27T01:56:56.851Z,3.00
2022-11-27T01:59:25.529Z,4.28
2022-11-27T02:01:52.470Z,3.17
2022-11-27T02:04:21.244Z,3.75
2022-11-27T02:09:31.505Z,4.00
2022-11-27T02:12:25.434Z,4.28
2022-11-27T02:15:14.398Z,5.00
2022-11-27T02:17:57.789Z,5.18
2022-11-27T02:20:38.519Z,6.80
2022-11-27T02:23:24.021Z,6.00
2022-11-27T02:26:18.888Z,5.93
2022-11-27T02:29:05.695Z,6.43
2022-11-27T02:31:55.852Z,5.75
2022-11-27T02:34:49.134Z,6.57
2022-11-27T02:37:55.467Z,5.93
2022-11-27T02:40:49.514Z,6.05
2022-11-27T02:43:25.808Z,6.40
2022-11-27T02:45:53.900Z,6.40
2022-11-27T02:48:25.221Z,6.72
2022-11-27T02:50:53.069Z,6.65
2022-11-27T02:53:30.490Z,7.22
2022-11-27T02:55:59.424Z,6.78
2022-11-27T02:58:29.463Z,7.22
2022-11-27T03:00:58.146Z,6.45
2022-11-27T03:03:29.951Z,7.97
2022-11-27T03:06:01.101Z,7.30
2022-11-27T03:08:42.497Z,7.82
2022-11-27T03:11:12.104Z,6.63
2022-11-27T03:13:45.778Z,7.53
2022-11-27T03:16:17.239Z,6.80
2022-11-27T03:18:56.865Z,6.38
2022-11-27T03:21:35.357Z,6.28
2022-11-27T03:24:02.427Z,6.72
2022-11-27T03:26:29.352Z,7.20
2022-11-27T03:28:59.220Z,5.55
2022-11-27T03:31:27.131Z,5.70
2022-11-27T03:33:54.626Z,6.07
2022-11-27T03:36:22.482Z,5.38
2022-11-27T03:38:51.738Z,5.60
2022-11-27T03:41:56.356Z,4.60
2022-11-27T03:44:23.193Z,4.53
2022-11-27T03:47:16.570Z,4.82
2022-11-27T03:49:58.491Z,4.13
2022-11-27T03:52:47.971Z,4.38
2022-11-27T03:55:33.556Z,4.55
2022-11-27T03:58:06.846Z,6.97
2022-11-27T04:00:40.202Z,7.10
2022-11-27T04:03:10.249Z,6.50
2022-11-27T04:05:37.469Z,7.47
2022-11-27T04:08:04.791Z,7.30
2022-11-27T04:10:31.606Z,7.43
2022-11-27T04:12:58.332Z,7.45
2022-11-27T04:15:25.433Z,7.43
2022-11-27T04:17:52.979Z,8.43
2022-11-27T04:20:19.729Z,7.28
2022-11-27T04:22:46.796Z,8.25
2022-11-27T04:25:13.606Z,7.68
2022-11-27T04:27:43.782Z,7.70
2022-11-27T04:30:11.090Z,7.95
2022-11-27T04:32:37.784Z,8.88
2022-11-27T04:35:05.477Z,8.52
2022-11-27T04:37:32.407Z,8.15
2022-11-27T04:39:59.232Z,9.60
2022-11-27T04:42:26.806Z,10.48
2022-11-27T04:44:53.678Z,9.93
2022-11-27T04:47:20.527Z,10.75
2022-11-27T04:49:47.500Z,10.07
2022-11-27T04:52:14.278Z,9.80
2022-11-27T04:54:42.023Z,9.77
2022-11-27T04:57:09.225Z,9.10
2022-11-27T04:59:36.545Z,8.57
2022-11-27T05:02:03.508Z,9.00
2022-11-27T05:04:31.258Z,9.10
2022-11-27T05:06:58.098Z,8.52
2022-11-27T05:09:25.032Z,8.85
2022-11-27T05:11:51.800Z,8.07
2022-11-27T05:14:20.218Z,8.80
2022-11-27T05:16:53.339Z,8.90
2022-11-27T05:19:22.558Z,8.00
2022-11-27T05:21:50.282Z,8.35
2022-11-27T05:24:21.388Z,7.93
2022-11-27T05:26:48.884Z,9.48
2022-11-27T05:29:17.552Z,10.15
2022-11-27T05:31:45.081Z,9.50
2022-11-27T05:34:14.016Z,9.60
2022-11-27T05:36:47.241Z,8.40
2022-11-27T05:39:14.858Z,8.18
2022-11-27T05:41:57.652Z,7.63
2022-11-27T05:44:26.951Z,7.93
2022-11-27T05:46:56.342Z,7.57
2022-11-27T05:49:29.184Z,8.07
2022-11-27T05:51:56.363Z,8.73
2022-11-27T05:54:27.434Z,7.85
2022-11-27T05:56:56.620Z,7.85
2022-11-27T05:59:23.416Z,8.48
2022-11-27T06:01:52.963Z,10.95
2022-11-27T06:04:20.596Z,10.30
2022-11-27T06:06:47.466Z,9.55
2022-11-27T06:09:14.257Z,9.98
2022-11-27T06:11:42.160Z,9.88
2022-11-27T06:14:09.752Z,10.52
2022-11-27T06:16:37.540Z,10.60
2022-11-27T06:19:04.839Z,9.80
2022-11-27T06:21:31.596Z,10.73
2022-11-27T06:23:58.822Z,10.52
2022-11-27T06:26:28.400Z,9.65
2022-11-27T06:28:56.628Z,10.52
2022-11-27T06:31:26.790Z,9.73
2022-11-27T06:33:55.621Z,9.80
2022-11-27T06:36:25.100Z,9.90
2022-11-27T06:38:51.835Z,10.30
2022-11-27T06:41:22.346Z,10.52
2022-11-27T06:43:49.169Z,10.93
2022-11-27T06:46:22.178Z,12.73
2022-11-27T06:48:54.092Z,12.75
2022-11-27T06:51:24.848Z,12.38
2022-11-27T06:53:53.748Z,10.98
2022-11-27T06:56:23.964Z,12.70
2022-11-27T06:58:52.914Z,11.88
2022-11-27T07:01:20.422Z,12.93
2022-11-27T07:03:47.371Z,14.90
2022-11-27T07:06:18.048Z,15.75
2022-11-27T07:08:44.952Z,15.18
2022-11-27T07:11:14.482Z,15.25
2022-11-27T07:13:41.599Z,15.20
2022-11-27T07:16:18.641Z,17.67
2022-11-27T07:18:48.574Z,16.77
2022-11-27T07:21:16.385Z,16.23
2022-11-27T07:23:43.575Z,17.02
2022-11-27T07:26:12.574Z,16.33
2022-11-27T07:28:39.465Z,16.38
2022-11-27T07:31:06.752Z,15.32
2022-11-27T07:33:33.937Z,15.18
2022-11-27T07:36:04.949Z,14.20
2022-11-27T07:38:31.721Z,14.48
2022-11-27T07:41:04.534Z,13.13
2022-11-27T07:43:32.619Z,13.82
2022-11-27T07:46:02.764Z,13.57
2022-11-27T07:48:30.969Z,14.23
2022-11-27T07:50:57.721Z,13.30
2022-11-27T07:53:24.664Z,14.38
2022-11-27T07:56:02.038Z,13.52
2022-11-27T07:58:29.653Z,16.08
2022-11-27T08:01:06.048Z,15.82
2022-11-27T08:03:52.458Z,15.57
2022-11-27T08:06:30.788Z,16.45
2022-11-27T08:08:59.085Z,15.48
2022-11-27T08:11:33.263Z,15.38
2022-11-27T08:14:07.038Z,16.58
2022-11-27T08:16:37.353Z,16.13
2022-11-27T08:19:04.364Z,16.05
2022-11-27T08:21:31.170Z,16.83
2022-11-27T08:23:59.383Z,18.33
2022-11-27T08:26:27.900Z,17.50
2022-11-27T08:28:55.248Z,18.05
2022-11-27T08:31:22.943Z,16.48
2022-11-27T08:33:49.753Z,17.45
2022-11-27T08:36:18.272Z,17.85
2022-11-27T08:38:46.255Z,15.63
2022-11-27T08:41:12.979Z,15.52
2022-11-27T08:43:39.847Z,16.60
2022-11-27T08:46:07.525Z,14.75
2022-11-27T08:48:34.643Z,13.10
2022-11-27T08:51:06.345Z,15.90
2022-11-27T08:53:33.402Z,16.13
2022-11-27T08:56:13.848Z,13.52
2022-11-27T08:58:46.805Z,13.70
2022-11-27T09:01:20.278Z,13.23
2022-11-27T09:03:48.339Z,13.23
2022-11-27T09:06:18.392Z,13.68
2022-11-27T09:08:50.933Z,15.10
2022-11-27T09:11:20.210Z,13.52
2022-11-27T09:13:52.220Z,14.73
2022-11-27T09:16:23.730Z,12.65
2022-11-27T09:18:55.395Z,12.07
2022-11-27T09:21:24.476Z,9.07
2022-11-27T09:24:00.806Z,10.88
2022-11-27T09:26:29.595Z,10.60
2022-11-27T09:28:58.515Z,10.55
2022-11-27T09:31:26.121Z,10.52
2022-11-27T09:33:53.394Z,10.15
2022-11-27T09:36:23.015Z,11.45
2022-11-27T09:38:50.449Z,11.18
2022-11-27T09:41:42.044Z,11.25
2022-11-27T09:44:36.832Z,10.10
2022-11-27T09:47:14.736Z,10.05
2022-11-27T09:49:55.178Z,10.00
2022-11-27T09:52:49.048Z,9.68
2022-11-27T09:55:36.098Z,9.73
2022-11-27T09:58:17.645Z,8.40
2022-11-27T10:00:59.380Z,8.95
2022-11-27T10:06:33.890Z,8.77
2022-11-27T10:09:12.819Z,9.65
2022-11-27T10:12:03.135Z,10.65
2022-11-27T10:14:57.431Z,10.63
2022-11-27T10:17:38.290Z,10.60
2022-11-27T10:20:31.173Z,9.80
2022-11-27T10:23:10.575Z,10.13
2022-11-27T10:25:45.445Z,11.10
2022-11-27T10:28:41.854Z,11.40
2022-11-27T10:31:14.702Z,9.30
2022-11-27T10:34:29.567Z,8.07
2022-11-27T10:36:58.107Z,9.50
2022-11-27T10:39:37.001Z,10.13
2022-11-27T10:42:08.958Z,10.07
2022-11-27T10:45:13.422Z,10.90
2022-11-27T10:47:43.281Z,8.88
2022-11-27T10:50:15.915Z,9.63
2022-11-27T10:53:03.872Z,10.93
2022-11-27T10:55:49.324Z,10.45
2022-11-27T10:58:36.835Z,8.95
2022-11-27T11:01:09.354Z,10.00
2022-11-27T11:03:36.916Z,8.98
2022-11-27T11:06:23.002Z,11.77
2022-11-27T11:09:15.394Z,10.95
2022-11-27T11:11:42.686Z,11.43
2022-11-27T11:14:24.109Z,11.98
2022-11-27T11:16:51.923Z,11.95
2022-11-27T11:19:25.240Z,12.55
2022-11-27T11:21:53.022Z,11.60
2022-11-27T11:24:28.805Z,11.95
2022-11-27T11:27:06.592Z,12.50
2022-11-27T11:30:11.003Z,12.90
2022-11-27T11:32:45.446Z,11.75
2022-11-27T11:37:48.874Z,11.98
2022-11-27T11:40:19.628Z,11.77
2022-11-27T11:43:21.921Z,13.30
2022-11-27T11:48:33.709Z,13.07
2022-11-27T11:51:45.366Z,15.68
2022-11-27T11:54:31.239Z,13.80
2022-11-27T11:57:02.306Z,12.13
2022-11-27T11:59:48.898Z,11.32
2022-11-27T12:02:26.830Z,13.43
2022-11-27T12:05:16.152Z,12.02
2022-11-27T12:08:01.480Z,11.15
2022-11-27T12:10:37.792Z,11.32
2022-11-27T12:13:33.342Z,9.80
2022-11-27T12:16:40.262Z,10.85
2022-11-27T12:19:25.195Z,11.65
2022-11-27T12:22:29.766Z,11.25
2022-11-27T12:25:18.482Z,11.10
2022-11-27T12:28:10.381Z,11.80
2022-11-27T12:30:56.464Z,13.73
2022-11-27T12:34:23.143Z,13.23
2022-11-27T12:37:20.014Z,12.95
2022-11-27T12:40:00.604Z,12.63
2022-11-27T12:42:44.331Z,16.00
2022-11-27T12:45:25.847Z,13.27
2022-11-27T12:47:55.702Z,13.07
2022-11-27T12:50:44.290Z,13.40
2022-11-27T12:53:16.760Z,13.43
2022-11-27T12:56:18.260Z,13.52
2022-11-27T13:01:47.737Z,12.85
2022-11-27T13:04:30.644Z,13.55
2022-11-27T13:07:31.180Z,13.73
2022-11-27T13:10:36.531Z,13.60
2022-11-27T13:13:04.053Z,13.65
2022-11-27T13:15:46.448Z,12.70
2022-11-27T13:18:48.151Z,14.60
2022-11-27T13:21:20.846Z,13.43
2022-11-27T13:23:48.147Z,14.60
2022-11-27T13:26:26.111Z,14.80
2022-11-27T13:29:07.348Z,14.80
2022-11-27T13:31:48.278Z,16.08
2022-11-27T13:34:22.595Z,15.70
2022-11-27T13:37:06.964Z,17.27
2022-11-27T13:39:39.332Z,14.18
2022-11-27T13:42:20.292Z,13.68
2022-11-27T13:44:59.874Z,14.85
2022-11-27T13:47:32.939Z,14.60
2022-11-27T13:50:13.418Z,14.80
2022-11-27T13:53:07.433Z,15.13
2022-11-27T13:55:37.496Z,14.82
2022-11-27T13:58:06.272Z,14.55
2022-11-27T14:00:40.234Z,14.85
2022-11-27T14:03:11.236Z,15.85
2022-11-27T14:05:44.276Z,16.88
2022-11-27T14:08:23.791Z,16.13
2022-11-27T14:10:56.465Z,15.88
2022-11-27T14:13:36.178Z,15.98
2022-11-27T14:16:09.615Z,15.52
2022-11-27T14:18:49.327Z,16.83
2022-11-27T14:21:29.449Z,17.92
2022-11-27T14:23:57.347Z,18.25
2022-11-27T14:26:28.028Z,16.55
2022-11-27T14:29:00.548Z,20.83
2022-11-27T14:31:37.999Z,18.80
2022-11-27T14:34:16.845Z,18.05
2022-11-27T14:36:44.549Z,19.77
2022-11-27T14:39:25.217Z,26.65
2022-11-27T14:42:31.266Z,25.92
2022-11-27T14:45:15.971Z,26.52
2022-11-27T14:47:52.610Z,29.88
2022-11-27T14:50:21.886Z,20.70
2022-11-27T14:52:57.444Z,19.55
2022-11-27T14:55:26.301Z,21.15
2022-11-27T14:57:55.100Z,23.38
2022-11-27T15:00:27.608Z,23.27
2022-11-27T15:02:55.277Z,19.90
2022-11-27T15:05:30.544Z,23.60
2022-11-27T15:07:59.386Z,28.08
2022-11-27T15:10:38.138Z,18.63
2022-11-27T15:13:08.377Z,18.02
2022-11-27T15:15:52.608Z,18.10
2022-11-27T15:18:26.631Z,21.80
2022-11-27T15:20:55.096Z,48.45
2022-11-27T15:23:26.431Z,38.92
2022-11-27T15:26:12.726Z,33.88
2022-11-27T15:28:47.342Z,38.15
2022-11-27T15:31:29.806Z,28.55
2022-11-27T15:34:17.995Z,31.50
2022-11-27T15:37:38.637Z,29.48
2022-11-27T15:40:23.834Z,29.02
2022-11-27T15:42:52.292Z,26.20
2022-11-27T15:45:19.618Z,24.20
2022-11-27T15:47:57.787Z,26.55
2022-11-27T15:53:09.083Z,23.23
2022-11-27T15:55:39.335Z,22.63
2022-11-27T15:58:16.397Z,23.35
2022-11-27T16:00:54.034Z,23.10
2022-11-27T16:03:23.208Z,24.02
2022-11-27T16:05:50.545Z,22.38
2022-11-27T16:08:38.165Z,26.17
2022-11-27T16:11:13.891Z,22.58
2022-11-27T16:13:41.348Z,23.52
2022-11-27T16:16:10.375Z,25.83
2022-11-27T16:18:37.382Z,28.73
2022-11-27T16:21:35.195Z,30.55
2022-11-27T16:24:06.239Z,30.17
2022-11-27T16:26:52.449Z,29.98
2022-11-27T16:29:30.840Z,27.55
2022-11-27T16:32:32.677Z,25.42
2022-11-27T16:35:00.201Z,22.42
2022-11-27T16:37:29.300Z,21.92
2022-11-27T16:40:16.103Z,23.85
2022-11-27T16:42:52.189Z,21.40
2022-11-27T16:45:21.261Z,23.00
2022-11-27T16:47:48.470Z,24.52
2022-11-27T16:50:15.980Z,26.17
2022-11-27T16:52:44.677Z,23.27
2022-11-27T16:55:32.033Z,19.63
2022-11-27T17:03:49.358Z,22.15
2022-11-27T17:06:19.506Z,19.60
2022-11-27T17:08:46.768Z,20.55
2022-11-27T17:11:17.418Z,20.83
2022-11-27T17:13:52.093Z,20.42
2022-11-27T17:16:20.007Z,20.52
2022-11-27T17:18:47.494Z,17.70
2022-11-27T17:21:26.853Z,18.13
2022-11-27T17:23:58.885Z,16.65
2022-11-27T17:26:34.475Z,20.85
2022-11-27T17:29:06.340Z,23.33
2022-11-27T17:31:35.786Z,20.60
2022-11-27T17:34:07.126Z,21.00
2022-11-27T17:36:37.465Z,17.70
2022-11-27T17:39:06.559Z,18.23
2022-11-27T17:41:34.195Z,18.92
2022-11-27T17:44:05.061Z,17.58
2022-11-27T17:46:33.304Z,17.02
2022-11-27T17:49:11.543Z,17.92
2022-11-27T17:51:38.657Z,18.33
2022-11-27T17:54:06.231Z,14.00
2022-11-27T17:56:35.778Z,15.02
2022-11-27T17:59:02.966Z,16.58
2022-11-27T18:01:31.182Z,14.50
2022-11-27T18:04:03.763Z,14.25
2022-11-27T18:06:31.518Z,14.30
2022-11-27T18:08:58.937Z,16.88
2022-11-27T18:11:30.363Z,15.45
2022-11-27T18:13:57.735Z,14.73
2022-11-27T18:16:49.845Z,16.02
2022-11-27T18:19:17.047Z,15.02
2022-11-27T18:21:43.988Z,14.63
2022-11-27T18:24:50.923Z,15.25
2022-11-27T18:27:23.046Z,14.45
2022-11-27T18:29:50.893Z,14.38
2022-11-27T18:32:18.867Z,14.48
2022-11-27T18:34:51.836Z,15.02
2022-11-27T18:37:18.750Z,14.18
2022-11-27T18:39:49.026Z,16.63
2022-11-27T18:42:20.464Z,14.35
2022-11-27T18:44:47.512Z,13.63
2022-11-27T18:47:15.475Z,12.57
2022-11-27T18:49:46.238Z,12.05
2022-11-27T18:52:13.261Z,12.45
2022-11-27T18:54:40.330Z,10.75
2022-11-27T18:57:11.356Z,12.63
2022-11-27T18:59:38.671Z,12.50
2022-11-27T19:02:09.586Z,13.88
2022-11-27T19:04:44.960Z,12.13
2022-11-27T19:07:12.299Z,12.07
2022-11-27T19:09:43.443Z,14.00
2022-11-27T19:12:11.702Z,15.05
2022-11-27T19:14:39.492Z,13.13
2022-11-27T19:17:12.588Z,13.00
2022-11-27T19:19:55.748Z,13.02
2022-11-27T19:22:22.898Z,11.07
2022-11-27T19:24:50.043Z,11.77
2022-11-27T19:27:19.369Z,11.35
2022-11-27T19:29:46.349Z,12.32
2022-11-27T19:32:13.272Z,12.68
2022-11-27T19:34:48.762Z,11.90
2022-11-27T19:37:21.385Z,12.43
2022-11-27T19:40:00.344Z,11.90
2022-11-27T19:42:27.448Z,10.68
2022-11-27T19:45:13.346Z,14.35
2022-11-27T19:47:47.585Z,16.20
2022-11-27T19:50:15.031Z,16.15
2022-11-27T19:52:42.496Z,13.98
2022-11-27T19:55:26.112Z,12.10
2022-11-27T19:57:53.066Z,10.45
2022-11-27T20:00:20.450Z,7.70
2022-11-27T20:02:47.747Z,6.70
2022-11-27T20:05:15.065Z,7.38
2022-11-27T20:07:42.222Z,6.78
2022-11-27T20:10:09.407Z,6.65
2022-11-27T20:12:38.420Z,6.18
2022-11-27T20:15:14.641Z,6.88
2022-11-27T20:17:42.034Z,5.68
2022-11-27T20:20:09.972Z,6.18
2022-11-27T20:22:37.140Z,6.63
2022-11-27T20:25:19.002Z,6.07
2022-11-27T20:27:47.088Z,6.53
2022-11-27T20:30:14.142Z,6.40
2022-11-27T20:32:41.090Z,7.07
2022-11-27T20:35:08.370Z,6.75
2022-11-27T20:37:35.303Z,6.93
2022-11-27T20:40:02.269Z,7.40
2022-11-27T20:42:29.228Z,7.47
2022-11-27T20:44:56.312Z,6.88
2022-11-27T20:47:23.278Z,6.65
2022-11-27T20:49:50.797Z,6.28
2022-11-27T20:52:20.526Z,6.22
2022-11-27T20:54:47.507Z,6.28
2022-11-27T20:57:15.251Z,6.78
2022-11-27T20:59:42.851Z,6.47
2022-11-27T21:02:11.355Z,7.07
2022-11-27T21:04:47.742Z,6.38
2022-11-27T21:07:14.898Z,6.65
2022-11-27T21:09:47.447Z,6.32
2022-11-27T21:12:14.592Z,5.20
2022-11-27T21:14:41.691Z,6.22
2022-11-27T21:17:08.664Z,5.80
2022-11-27T21:19:35.899Z,5.60
2022-11-27T21:22:02.965Z,5.25
2022-11-27T21:24:30.027Z,5.57
2022-11-27T21:26:57.397Z,5.45
2022-11-27T21:29:25.542Z,5.95
2022-11-27T21:31:53.395Z,6.13
2022-11-27T21:34:20.485Z,6.10
2022-11-27T21:36:47.519Z,6.65
2022-11-27T21:39:21.205Z,6.88
2022-11-27T21:41:54.016Z,7.18
2022-11-27T21:44:22.511Z,6.30
2022-11-27T21:46:50.565Z,6.95
2022-11-27T21:49:20.231Z,7.72
2022-11-27T21:51:51.140Z,7.25
2022-11-27T21:54:19.244Z,7.75
2022-11-27T21:56:46.340Z,7.82
2022-11-27T21:59:16.596Z,7.82
2022-11-27T22:01:45.569Z,6.55
2022-11-27T22:04:13.254Z,6.88
2022-11-27T22:06:42.012Z,7.25
2022-11-27T22:09:15.071Z,7.35
2022-11-27T22:11:42.976Z,6.95
2022-11-27T22:14:10.075Z,5.85
2022-11-27T22:16:44.354Z,6.90
2022-11-27T22:19:12.531Z,6.97
2022-11-27T22:21:39.439Z,6.93
2022-11-27T22:24:06.670Z,6.97
2022-11-27T22:26:33.852Z,6.82
2022-11-27T22:29:01.106Z,7.65
2022-11-27T22:31:31.352Z,7.10
2022-11-27T22:33:58.834Z,6.68
2022-11-27T22:36:31.927Z,6.75
2022-11-27T22:39:01.120Z,6.07
2022-11-27T22:41:30.522Z,6.72
2022-11-27T22:43:58.975Z,6.80
2022-11-27T22:46:28.693Z,6.55
2022-11-27T22:48:58.474Z,6.03
2022-11-27T22:51:27.146Z,5.97
2022-11-27T22:53:54.486Z,6.07
2022-11-27T22:56:21.533Z,6.20
2022-11-27T22:58:49.217Z,6.05
2022-11-27T23:01:19.468Z,6.85
2022-11-27T23:03:46.485Z,5.50
2022-11-27T23:06:15.900Z,6.40
2022-11-27T23:08:46.056Z,6.15
2022-11-27T23:11:19.099Z,6.25
2022-11-27T23:13:49.648Z,6.13
2022-11-27T23:16:18.773Z,5.47
2022-11-27T23:18:53.551Z,6.05
2022-11-27T23:21:23.905Z,5.57
2022-11-27T23:23:52.564Z,6.93
2022-11-27T23:26:21.744Z,6.65
2022-11-27T23:28:50.946Z,7.10
2022-11-27T23:31:30.090Z,5.90
2022-11-27T23:34:01.105Z,6.88
2022-11-27T23:36:29.878Z,7.53
2022-11-27T23:39:02.285Z,6.65
2022-11-27T23:41:29.314Z,6.70
2022-11-27T23:43:57.954Z,7.53
2022-11-27T23:46:33.018Z,8.32
2022-11-27T23:49:00.937Z,7.25
2022-11-27T23:51:31.335Z,5.70
2022-11-27T23:53:59.152Z,5.20
2022-11-27T23:56:29.479Z,4.50
2022-11-27T23:58:57.445Z,5.38
